createdAt,value
2023-05-24T00:02:27.256Z,60.23
2023-05-24T00:04:54.362Z,60.24
2023-05-24T00:07:21.773Z,60.41
2023-05-24T00:09:49.204Z,60.19
2023-05-24T00:12:17.048Z,60.26
2023-05-24T00:14:44.545Z,60.06
2023-05-24T00:17:13.465Z,59.96
2023-05-24T00:19:40.770Z,59.57
2023-05-24T00:22:08.158Z,57.86
2023-05-24T00:24:35.682Z,57.47
2023-05-24T00:27:03.391Z,58.85
2023-05-24T00:29:32.322Z,60.32
2023-05-24T00:31:59.482Z,63.84
2023-05-24T00:34:26.564Z,66.75
2023-05-24T00:36:53.769Z,65.68
2023-05-24T00:39:20.909Z,64.21
2023-05-24T00:41:48.070Z,63.33
2023-05-24T00:44:15.432Z,62.36
2023-05-24T00:46:42.832Z,62.18
2023-05-24T00:49:10.813Z,61.79
2023-05-24T00:51:38.901Z,61.20
2023-05-24T00:54:07.223Z,61.03
2023-05-24T00:56:34.584Z,60.79
2023-05-24T00:59:02.931Z,60.59
2023-05-24T01:01:31.614Z,60.43
2023-05-24T01:04:00.407Z,60.00
2023-05-24T01:06:29.287Z,59.72
2023-05-24T01:09:20.373Z,58.19
2023-05-24T01:12:20.400Z,56.95
2023-05-24T01:15:10.824Z,58.05
2023-05-24T01:17:54.792Z,59.82
2023-05-24T01:20:23.989Z,64.48
2023-05-24T01:23:22.412Z,67.37
2023-05-24T01:26:25.190Z,66.08
2023-05-24T01:28:54.480Z,64.48
2023-05-24T01:31:23.058Z,63.13
2023-05-24T01:33:50.550Z,62.79
2023-05-24T01:36:17.773Z,62.40
2023-05-24T01:38:46.129Z,61.57
2023-05-24T01:41:35.208Z,61.68
2023-05-24T01:44:20.727Z,61.34
2023-05-24T01:46:54.170Z,61.27
2023-05-24T01:49:30.750Z,61.07
2023-05-24T01:52:05.710Z,60.20
2023-05-24T01:54:38.226Z,60.47
2023-05-24T01:57:10.681Z,60.26
2023-05-24T01:59:42.732Z,60.22
2023-05-24T02:02:11.427Z,60.37
2023-05-24T02:04:38.536Z,60.23
2023-05-24T02:07:05.876Z,60.17
2023-05-24T02:09:33.843Z,60.19
2023-05-24T02:12:00.790Z,60.05
2023-05-24T02:14:28.245Z,59.94
2023-05-24T02:16:59.501Z,59.65
2023-05-24T02:19:26.841Z,58.03
2023-05-24T02:21:53.987Z,57.34
2023-05-24T02:24:21.126Z,58.26
2023-05-24T02:26:48.077Z,59.95
2023-05-24T02:29:15.947Z,64.06
2023-05-24T02:31:43.157Z,66.61
2023-05-24T02:34:10.441Z,65.78
2023-05-24T02:36:37.789Z,64.50
2023-05-24T02:39:05.220Z,63.35
2023-05-24T02:41:32.744Z,62.64
2023-05-24T02:43:59.957Z,62.44
2023-05-24T02:46:27.301Z,61.83
2023-05-24T02:48:54.351Z,61.52
2023-05-24T02:51:21.607Z,61.62
2023-05-24T02:53:51.720Z,60.73
2023-05-24T02:56:18.892Z,60.63
2023-05-24T02:58:46.370Z,60.95
2023-05-24T03:01:13.897Z,60.91
2023-05-24T03:03:41.951Z,60.72
2023-05-24T03:06:09.165Z,60.62
2023-05-24T03:08:38.132Z,60.70
2023-05-24T03:11:05.232Z,60.39
2023-05-24T03:13:32.295Z,60.23
2023-05-24T03:15:59.442Z,60.27
2023-05-24T03:18:26.781Z,60.11
2023-05-24T03:20:54.328Z,60.04
2023-05-24T03:23:21.415Z,59.95
2023-05-24T03:25:48.929Z,59.88
2023-05-24T03:28:16.582Z,59.87
2023-05-24T03:30:43.763Z,59.83
2023-05-24T03:33:11.417Z,59.66
2023-05-24T03:35:38.346Z,59.83
2023-05-24T03:38:05.295Z,59.88
2023-05-24T03:40:33.972Z,59.88
2023-05-24T03:43:01.873Z,59.99
2023-05-24T03:45:39.228Z,59.89
2023-05-24T03:48:07.519Z,59.98
2023-05-24T03:50:34.756Z,60.02
2023-05-24T03:53:01.695Z,60.14
2023-05-24T03:55:28.650Z,60.08
2023-05-24T03:57:55.575Z,59.91
2023-05-24T04:00:22.725Z,60.07
2023-05-24T04:02:49.827Z,59.98
2023-05-24T04:05:17.218Z,59.50
2023-05-24T04:07:46.725Z,57.79
2023-05-24T04:10:13.866Z,58.40
2023-05-24T04:12:41.818Z,59.81
2023-05-24T04:15:09.498Z,63.94
2023-05-24T04:17:36.669Z,65.98
2023-05-24T04:20:05.888Z,64.75
2023-05-24T04:22:32.885Z,63.73
2023-05-24T04:25:00.196Z,62.28
2023-05-24T04:27:27.648Z,61.89
2023-05-24T04:29:54.741Z,61.93
2023-05-24T04:32:22.111Z,61.54
2023-05-24T04:34:49.447Z,61.04
2023-05-24T04:37:17.721Z,60.80
2023-05-24T04:39:45.532Z,60.55
2023-05-24T04:42:13.371Z,60.35
2023-05-24T04:44:44.809Z,60.09
2023-05-24T04:47:13.149Z,60.30
2023-05-24T04:49:40.536Z,59.80
2023-05-24T04:52:08.290Z,58.05
2023-05-24T04:54:35.229Z,57.38
2023-05-24T04:57:02.174Z,59.36
2023-05-24T04:59:29.117Z,63.19
2023-05-24T05:01:56.738Z,64.93
2023-05-24T05:04:23.840Z,64.29
2023-05-24T05:06:50.874Z,63.17
2023-05-24T05:09:18.012Z,62.59
2023-05-24T05:11:47.101Z,61.61
2023-05-24T05:14:14.725Z,61.22
2023-05-24T05:16:42.916Z,60.47
2023-05-24T05:19:09.987Z,60.32
2023-05-24T05:21:37.133Z,60.04
2023-05-24T05:24:04.485Z,59.66
2023-05-24T05:26:31.939Z,57.55
2023-05-24T05:28:59.200Z,56.90
2023-05-24T05:31:26.129Z,59.05
2023-05-24T05:33:53.082Z,60.23
2023-05-24T05:36:20.121Z,64.05
2023-05-24T05:38:47.174Z,67.04
2023-05-24T05:41:14.113Z,65.53
2023-05-24T05:43:41.261Z,64.32
2023-05-24T05:46:08.389Z,63.33
2023-05-24T05:48:35.457Z,62.35
2023-05-24T05:51:02.806Z,61.51
2023-05-24T05:53:29.741Z,61.16
2023-05-24T05:55:56.693Z,60.95
2023-05-24T05:58:23.976Z,60.28
2023-05-24T06:00:51.614Z,59.69
2023-05-24T06:03:19.091Z,58.09
2023-05-24T06:05:46.203Z,58.17
2023-05-24T06:08:13.163Z,59.41
2023-05-24T06:10:40.497Z,60.49
2023-05-24T06:13:08.054Z,64.22
2023-05-24T06:15:35.328Z,66.66
2023-05-24T06:18:02.926Z,65.55
2023-05-24T06:20:30.229Z,64.05
2023-05-24T06:22:57.806Z,63.21
2023-05-24T06:25:24.920Z,62.67
2023-05-24T06:27:52.285Z,61.76
2023-05-24T06:30:19.558Z,61.06
2023-05-24T06:32:46.789Z,60.90
2023-05-24T06:35:14.282Z,60.70
2023-05-24T06:37:41.610Z,60.40
2023-05-24T06:40:09.986Z,60.01
2023-05-24T06:42:37.581Z,59.93
2023-05-24T06:45:05.210Z,59.91
2023-05-24T06:47:32.578Z,59.68
2023-05-24T06:50:01.468Z,57.94
2023-05-24T06:52:28.691Z,57.63
2023-05-24T06:54:56.129Z,58.95
2023-05-24T06:57:23.671Z,60.86
2023-05-24T06:59:50.745Z,64.24
2023-05-24T07:02:17.866Z,65.45
2023-05-24T07:04:44.950Z,64.59
2023-05-24T07:07:13.500Z,62.89
2023-05-24T07:09:42.595Z,61.95
2023-05-24T07:12:09.809Z,61.20
2023-05-24T07:14:37.093Z,60.42
2023-05-24T07:17:05.459Z,59.90
2023-05-24T07:19:35.086Z,57.95
2023-05-24T07:22:02.399Z,56.80
2023-05-24T07:24:30.110Z,58.13
2023-05-24T07:26:57.950Z,59.92
2023-05-24T07:29:26.446Z,60.75
2023-05-24T07:31:56.607Z,63.75
2023-05-24T07:34:27.890Z,67.26
2023-05-24T07:36:55.190Z,66.19
2023-05-24T07:39:22.450Z,64.30
2023-05-24T07:41:51.285Z,62.73
2023-05-24T07:44:20.158Z,61.80
2023-05-24T07:46:47.544Z,60.83
2023-05-24T07:49:14.572Z,60.75
2023-05-24T07:51:42.055Z,58.25
2023-05-24T07:54:09.066Z,57.39
2023-05-24T07:56:36.960Z,58.42
2023-05-24T07:59:05.154Z,60.50
2023-05-24T08:01:34.694Z,63.43
2023-05-24T08:04:04.491Z,65.45
2023-05-24T08:06:35.485Z,64.39
2023-05-24T08:09:10.661Z,62.83
2023-05-24T08:11:41.692Z,61.44
2023-05-24T08:14:15.973Z,60.05
2023-05-24T08:16:48.299Z,57.52
2023-05-24T08:19:19.684Z,57.32
2023-05-24T08:21:52.811Z,57.18
2023-05-24T08:24:21.439Z,58.62
2023-05-24T08:26:48.845Z,59.55
2023-05-24T08:29:18.022Z,60.82
2023-05-24T08:31:45.208Z,63.99
2023-05-24T08:34:13.643Z,65.88
2023-05-24T08:36:43.530Z,64.77
2023-05-24T08:39:10.661Z,62.86
2023-05-24T08:41:39.352Z,61.23
2023-05-24T08:44:10.072Z,58.63
2023-05-24T08:46:39.120Z,57.04
2023-05-24T08:49:08.368Z,58.02
2023-05-24T08:51:39.329Z,59.36
2023-05-24T08:54:08.109Z,60.37
2023-05-24T08:56:35.796Z,61.35
2023-05-24T08:59:03.336Z,63.97
2023-05-24T09:01:32.779Z,66.38
2023-05-24T09:04:05.241Z,64.89
2023-05-24T09:06:33.673Z,63.48
2023-05-24T09:09:04.704Z,62.29
2023-05-24T09:11:35.183Z,60.65
2023-05-24T09:14:02.918Z,58.03
2023-05-24T09:16:30.419Z,56.29
2023-05-24T09:18:57.494Z,57.62
2023-05-24T09:21:25.947Z,57.83
2023-05-24T09:23:54.562Z,59.02
2023-05-24T09:26:24.387Z,59.92
2023-05-24T09:28:55.565Z,60.83
2023-05-24T09:31:36.183Z,63.50
2023-05-24T09:34:04.566Z,66.77
2023-05-24T09:36:37.075Z,65.57
2023-05-24T09:39:10.829Z,64.26
2023-05-24T09:41:38.856Z,62.44
2023-05-24T09:44:07.856Z,60.72
2023-05-24T09:46:38.982Z,57.51
2023-05-24T09:49:08.696Z,56.56
2023-05-24T09:51:42.407Z,57.96
2023-05-24T09:54:10.209Z,58.90
2023-05-24T09:56:41.081Z,59.85
2023-05-24T09:59:09.364Z,61.37
2023-05-24T10:01:36.729Z,60.72
2023-05-24T10:04:09.316Z,64.91
2023-05-24T10:06:38.773Z,66.71
2023-05-24T10:09:07.573Z,65.19
2023-05-24T10:11:38.745Z,62.83
2023-05-24T10:14:10.058Z,61.20
2023-05-24T10:16:40.753Z,57.85
2023-05-24T10:19:08.899Z,56.34
2023-05-24T10:21:41.453Z,58.15
2023-05-24T10:24:12.050Z,59.73
2023-05-24T10:26:42.849Z,60.63
2023-05-24T10:29:13.412Z,60.57
2023-05-24T10:31:42.812Z,63.43
2023-05-24T10:34:10.776Z,65.38
2023-05-24T10:36:40.855Z,64.65
2023-05-24T10:39:13.762Z,62.86
2023-05-24T10:41:42.690Z,58.89
2023-05-24T10:44:14.302Z,57.12
2023-05-24T10:47:11.160Z,58.66
2023-05-24T10:49:55.408Z,60.36
2023-05-24T10:52:34.497Z,61.16
2023-05-24T10:55:09.962Z,61.07
2023-05-24T10:57:39.002Z,64.39
2023-05-24T11:00:34.571Z,65.05
2023-05-24T11:03:07.203Z,63.48
2023-05-24T11:05:36.289Z,60.69
2023-05-24T11:08:04.645Z,57.00
2023-05-24T11:10:32.788Z,55.13
2023-05-24T11:13:04.342Z,55.76
2023-05-24T11:15:31.364Z,56.48
2023-05-24T11:18:13.119Z,58.04
2023-05-24T11:20:43.269Z,58.42
2023-05-24T11:23:11.882Z,59.69
2023-05-24T11:25:39.585Z,59.66
2023-05-24T11:28:12.110Z,61.34
2023-05-24T11:30:45.694Z,61.81
2023-05-24T11:33:24.415Z,65.35
2023-05-24T11:35:54.761Z,65.08
2023-05-24T11:38:24.931Z,62.37
2023-05-24T11:40:52.490Z,58.60
2023-05-24T11:43:22.808Z,56.48
2023-05-24T11:45:51.367Z,56.74
2023-05-24T11:48:20.234Z,57.06
2023-05-24T11:50:51.861Z,57.47
2023-05-24T11:53:21.619Z,58.42
2023-05-24T11:55:49.314Z,59.89
2023-05-24T11:58:54.854Z,59.84
2023-05-24T12:01:27.672Z,59.80
2023-05-24T12:03:55.562Z,60.85
2023-05-24T12:06:23.360Z,61.35
2023-05-24T12:08:50.826Z,61.09
2023-05-24T12:11:18.590Z,61.28
2023-05-24T12:13:46.381Z,64.88
2023-05-24T12:16:14.777Z,66.81
2023-05-24T12:18:51.425Z,64.63
2023-05-24T12:21:31.909Z,62.02
2023-05-24T12:24:22.559Z,57.88
2023-05-24T12:26:51.322Z,55.66
2023-05-24T12:29:21.111Z,56.02
2023-05-24T12:31:49.573Z,56.97
2023-05-24T12:34:21.563Z,57.58
2023-05-24T12:36:49.364Z,58.84
2023-05-24T12:39:36.695Z,59.92
2023-05-24T12:42:05.068Z,59.47
2023-05-24T12:44:35.209Z,59.79
2023-05-24T12:47:04.139Z,60.83
2023-05-24T12:49:32.283Z,60.52
2023-05-24T12:52:00.162Z,61.51
2023-05-24T12:54:28.803Z,61.43
2023-05-24T12:56:57.912Z,64.35
2023-05-24T12:59:27.656Z,66.72
2023-05-24T13:01:54.691Z,64.79
2023-05-24T13:04:23.474Z,61.80
2023-05-24T13:06:50.928Z,57.51
2023-05-24T13:09:19.472Z,54.58
2023-05-24T13:11:47.412Z,55.16
2023-05-24T13:14:17.222Z,55.73
2023-05-24T13:16:45.139Z,56.89
2023-05-24T13:19:12.904Z,57.74
2023-05-24T13:21:40.659Z,58.76
2023-05-24T13:24:08.160Z,59.29
2023-05-24T13:26:38.446Z,59.93
2023-05-24T13:31:38.486Z,60.54
2023-05-24T13:34:07.193Z,61.19
2023-05-24T13:36:34.991Z,61.40
2023-05-24T13:39:14.858Z,64.90
2023-05-24T13:41:44.475Z,67.17
2023-05-24T13:44:16.998Z,64.48
2023-05-24T13:46:45.311Z,60.76
2023-05-24T13:49:19.121Z,57.01
2023-05-24T13:51:50.916Z,55.07
2023-05-24T13:54:32.622Z,55.42
2023-05-24T13:56:59.876Z,55.97
2023-05-24T13:59:27.933Z,57.47
2023-05-24T14:01:54.930Z,57.28
2023-05-24T14:04:21.977Z,58.05
2023-05-24T14:06:49.617Z,58.95
2023-05-24T14:09:16.868Z,59.53
2023-05-24T14:11:45.803Z,59.96
2023-05-24T14:16:43.431Z,60.88
2023-05-24T14:19:11.305Z,61.22
2023-05-24T14:21:38.840Z,64.28
2023-05-24T14:24:05.982Z,67.01
2023-05-24T14:26:33.342Z,64.72
2023-05-24T14:29:00.543Z,62.30
2023-05-24T14:31:27.940Z,58.26
2023-05-24T14:33:54.962Z,55.79
2023-05-24T14:36:22.486Z,55.98
2023-05-24T14:38:49.784Z,56.01
2023-05-24T14:41:17.189Z,56.38
2023-05-24T14:43:44.261Z,57.78
2023-05-24T14:46:11.318Z,58.41
2023-05-24T14:48:41.906Z,58.66
2023-05-24T14:51:08.878Z,59.68
2023-05-24T14:53:36.583Z,59.72
2023-05-24T14:56:05.664Z,60.23
2023-05-24T14:58:32.882Z,60.86
2023-05-24T15:01:00.185Z,61.36
2023-05-24T15:03:27.605Z,61.75
2023-05-24T15:05:55.525Z,61.67
2023-05-24T15:08:22.604Z,62.09
2023-05-24T15:10:49.950Z,65.16
2023-05-24T15:13:18.703Z,66.67
2023-05-24T15:15:45.777Z,65.45
2023-05-24T15:18:13.294Z,62.41
2023-05-24T15:20:41.818Z,58.53
2023-05-24T15:23:11.090Z,56.12
2023-05-24T15:25:39.239Z,56.35
2023-05-24T15:28:06.449Z,57.05
2023-05-24T15:30:34.065Z,57.64
2023-05-24T15:33:01.546Z,58.07
2023-05-24T15:35:28.905Z,58.89
2023-05-24T15:37:56.306Z,59.86
2023-05-24T15:40:24.777Z,60.56
2023-05-24T15:42:53.183Z,61.07
2023-05-24T15:45:20.635Z,62.13
2023-05-24T15:47:48.081Z,65.33
2023-05-24T15:50:15.181Z,66.04
2023-05-24T15:52:42.640Z,62.80
2023-05-24T15:55:10.357Z,59.00
2023-05-24T15:57:37.641Z,57.21
2023-05-24T16:00:05.724Z,58.32
2023-05-24T16:02:32.962Z,58.69
2023-05-24T16:05:01.182Z,59.40
2023-05-24T16:07:28.539Z,60.43
2023-05-24T16:09:55.630Z,63.41
2023-05-24T16:12:23.031Z,65.21
2023-05-24T16:14:50.699Z,63.92
2023-05-24T16:17:18.217Z,62.15
2023-05-24T16:19:50.004Z,58.54
2023-05-24T16:22:17.619Z,55.90
2023-05-24T16:25:06.185Z,56.69
2023-05-24T16:27:38.974Z,57.21
2023-05-24T16:30:20.562Z,57.95
2023-05-24T16:33:00.534Z,58.74
2023-05-24T16:35:46.929Z,59.21
2023-05-24T16:38:28.898Z,59.79
2023-05-24T16:40:56.116Z,60.79
2023-05-24T16:43:23.471Z,61.38
2023-05-24T16:45:51.810Z,64.84
2023-05-24T16:48:21.985Z,67.63
2023-05-24T16:50:50.792Z,66.45
2023-05-24T16:53:18.210Z,64.41
2023-05-24T16:55:59.964Z,61.74
2023-05-24T16:58:38.251Z,57.62
2023-05-24T17:01:05.980Z,55.14
2023-05-24T17:03:34.460Z,55.54
2023-05-24T17:06:03.995Z,56.24
2023-05-24T17:08:36.335Z,57.03
2023-05-24T17:11:07.679Z,58.52
2023-05-24T17:13:34.977Z,59.04
2023-05-24T17:16:04.222Z,59.79
2023-05-24T17:18:31.576Z,60.33
2023-05-24T17:21:00.924Z,61.14
2023-05-24T17:23:31.289Z,64.47
2023-05-24T17:25:59.465Z,67.90
2023-05-24T17:28:27.979Z,65.68
2023-05-24T17:30:56.950Z,63.29
2023-05-24T17:33:25.408Z,61.55
2023-05-24T17:35:56.814Z,57.57
2023-05-24T17:38:25.373Z,55.40
2023-05-24T17:40:59.814Z,55.77
2023-05-24T17:43:33.078Z,56.46
2023-05-24T17:46:07.029Z,57.16
2023-05-24T17:48:39.337Z,58.39
2023-05-24T17:51:08.637Z,60.02
2023-05-24T17:53:38.788Z,60.13
2023-05-24T17:56:06.980Z,60.50
2023-05-24T17:58:37.986Z,60.94
2023-05-24T18:01:07.264Z,64.70
2023-05-24T18:03:37.508Z,67.87
2023-05-24T18:06:07.258Z,66.24
2023-05-24T18:08:38.493Z,63.99
2023-05-24T18:11:09.190Z,62.06
2023-05-24T18:13:38.501Z,58.73
2023-05-24T18:16:07.318Z,56.12
2023-05-24T18:18:35.092Z,56.09
2023-05-24T18:21:02.239Z,56.91
2023-05-24T18:23:29.754Z,57.89
2023-05-24T18:26:00.782Z,58.40
2023-05-24T18:28:30.615Z,59.11
2023-05-24T18:30:58.523Z,60.27
2023-05-24T18:33:25.624Z,60.75
2023-05-24T18:35:53.683Z,61.26
2023-05-24T18:38:21.434Z,64.98
2023-05-24T18:40:48.716Z,68.47
2023-05-24T18:43:15.792Z,66.61
2023-05-24T18:45:42.982Z,64.27
2023-05-24T18:48:11.276Z,62.05
2023-05-24T18:50:38.372Z,58.58
2023-05-24T18:53:06.035Z,56.21
2023-05-24T18:55:33.436Z,56.54
2023-05-24T18:58:00.526Z,57.35
2023-05-24T19:00:28.107Z,58.64
2023-05-24T19:02:56.454Z,59.32
2023-05-24T19:05:23.803Z,60.06
2023-05-24T19:07:50.758Z,61.17
2023-05-24T19:10:18.406Z,65.63
2023-05-24T19:12:46.324Z,68.44
2023-05-24T19:15:13.521Z,66.21
2023-05-24T19:17:41.129Z,63.97
2023-05-24T19:20:08.785Z,61.93
2023-05-24T19:22:36.612Z,58.10
2023-05-24T19:25:04.175Z,56.48
2023-05-24T19:27:31.321Z,57.50
2023-05-24T19:30:00.521Z,58.60
2023-05-24T19:32:27.535Z,59.48
2023-05-24T19:34:55.011Z,60.47
2023-05-24T19:37:22.342Z,61.34
2023-05-24T19:39:50.071Z,65.13
2023-05-24T19:42:17.608Z,67.83
2023-05-24T19:44:44.980Z,65.64
2023-05-24T19:47:12.314Z,63.40
2023-05-24T19:49:39.634Z,61.68
2023-05-24T19:52:07.226Z,58.31
2023-05-24T19:54:34.487Z,56.41
2023-05-24T19:57:02.527Z,57.03
2023-05-24T19:59:30.320Z,58.00
2023-05-24T20:01:57.490Z,58.95
2023-05-24T20:04:25.115Z,60.26
